createdAt,value
2019-04-22T00:02:13.809Z,86.19
2019-04-22T00:08:03.173Z,85.77
2019-04-22T00:13:25.998Z,86.54
2019-04-22T00:18:56.299Z,85.79
2019-04-22T00:24:01.202Z,84.61
2019-04-22T00:34:42.691Z,80.54
2019-04-22T00:39:58.889Z,74.30
2019-04-22T00:45:41.812Z,74.81
2019-04-22T00:50:51.504Z,75.31
2019-04-22T01:01:31.831Z,75.68
2019-04-22T01:06:51.330Z,75.07
2019-04-22T01:12:13.637Z,75.77
2019-04-22T01:17:36.352Z,75.99
2019-04-22T01:22:52.141Z,74.84
2019-04-22T01:28:01.983Z,75.60
2019-04-22T01:33:16.056Z,75.31
2019-04-22T01:38:51.191Z,73.30
2019-04-22T01:44:21.556Z,73.50
2019-04-22T01:49:33.927Z,72.43
2019-04-22T01:54:54.619Z,72.40
2019-04-22T02:00:06.806Z,74.07
2019-04-22T02:05:35.786Z,71.88
2019-04-22T02:11:02.338Z,73.99
2019-04-22T02:16:23.112Z,73.26
2019-04-22T02:21:38.218Z,72.98
2019-04-22T02:26:56.794Z,72.77
2019-04-22T02:32:43.944Z,73.66
2019-04-22T02:37:35.342Z,75.01
2019-04-22T02:43:12.662Z,75.65
2019-04-22T02:54:15.143Z,76.77
2019-04-22T02:59:12.446Z,77.43
2019-04-22T03:04:37.479Z,77.74
2019-04-22T03:09:50.743Z,78.62
2019-04-22T03:20:24.806Z,77.91
2019-04-22T03:31:40.336Z,78.88
2019-04-22T03:42:05.658Z,78.05
2019-04-22T03:47:32.075Z,78.83
2019-04-22T03:52:39.120Z,77.88
2019-04-22T04:24:59.927Z,70.76
2019-04-22T04:40:46.157Z,69.55
2019-04-22T04:46:06.124Z,66.49
2019-04-22T04:56:46.617Z,64.65
2019-04-22T05:02:17.418Z,55.35
2019-04-22T05:18:08.674Z,50.07
2019-04-22T05:28:44.957Z,47.46
2019-04-22T05:34:04.356Z,44.15
2019-04-22T05:39:37.026Z,42.97
2019-04-22T05:44:41.127Z,41.04
2019-04-22T05:50:02.241Z,41.51
2019-04-22T05:55:26.818Z,38.17
2019-04-22T06:01:13.110Z,37.47
2019-04-22T06:06:07.789Z,35.34
2019-04-22T06:11:25.655Z,32.41
2019-04-22T06:16:45.783Z,33.32
2019-04-22T06:22:12.834Z,30.03
2019-04-22T06:27:31.009Z,32.91
2019-04-22T06:32:47.299Z,30.57
2019-04-22T06:38:28.214Z,30.57
2019-04-22T06:43:29.594Z,28.87
2019-04-22T06:48:48.961Z,29.68
2019-04-22T06:54:07.297Z,28.59
2019-04-22T06:59:34.414Z,30.50
2019-04-22T07:04:55.148Z,29.11
2019-04-22T07:10:23.217Z,27.84
2019-04-22T07:20:57.858Z,29.39
2019-04-22T07:31:41.125Z,28.53
2019-04-22T07:37:18.211Z,31.02
2019-04-22T07:42:19.188Z,28.26
2019-04-22T07:52:51.459Z,28.74
2019-04-22T07:58:18.591Z,26.20
2019-04-22T08:03:49.974Z,25.62
2019-04-22T08:09:01.838Z,27.11
2019-04-22T08:14:14.209Z,28.01
2019-04-22T08:19:35.467Z,26.06
2019-04-22T08:24:56.138Z,26.91
2019-04-22T08:30:20.375Z,29.08
2019-04-22T08:35:52.270Z,27.27
2019-04-22T08:46:40.425Z,27.18
2019-04-22T08:52:01.330Z,25.92
2019-04-22T08:57:31.864Z,29.33
2019-04-22T09:02:46.772Z,25.54
2019-04-22T09:08:09.355Z,23.74
2019-04-22T09:13:26.371Z,26.52
2019-04-22T09:18:59.596Z,27.68
2019-04-22T09:24:06.835Z,28.81
2019-04-22T09:29:26.994Z,25.78
2019-04-22T09:34:56.281Z,28.29
2019-04-22T09:40:11.899Z,26.28
2019-04-22T09:45:21.615Z,24.55
2019-04-22T09:56:04.003Z,25.42
2019-04-22T10:06:40.578Z,25.92
2019-04-22T10:12:02.569Z,26.38
2019-04-22T10:17:26.179Z,25.79
2019-04-22T10:28:14.732Z,26.84
2019-04-22T10:33:25.803Z,24.85
2019-04-22T10:38:26.285Z,27.09
2019-04-22T10:43:45.385Z,28.01
2019-04-22T10:49:04.291Z,27.08
2019-04-22T10:54:23.341Z,25.43
2019-04-22T10:59:42.668Z,26.53
2019-04-22T11:05:02.052Z,25.77
2019-04-22T11:10:41.218Z,24.29
2019-04-22T11:15:42.511Z,25.60
2019-04-22T11:21:01.921Z,23.92
2019-04-22T11:26:21.915Z,25.35
2019-04-22T11:31:42.414Z,22.76
2019-04-22T11:37:01.120Z,25.78
2019-04-22T11:42:20.440Z,24.99
2019-04-22T11:47:39.374Z,24.51
2019-04-22T11:52:58.604Z,23.42
2019-04-22T11:58:17.274Z,24.56
2019-04-22T12:03:35.970Z,22.58
2019-04-22T12:08:54.591Z,22.24
2019-04-22T12:14:13.959Z,22.33
2019-04-22T12:19:33.478Z,21.74
2019-04-22T12:24:54.403Z,22.60
2019-04-22T12:30:14.823Z,22.85
2019-04-22T12:35:34.583Z,22.34
2019-04-22T12:41:00.252Z,20.44
2019-04-22T12:46:16.330Z,21.18
2019-04-22T12:51:36.645Z,20.56
2019-04-22T12:56:55.751Z,22.02
2019-04-22T13:02:15.486Z,22.03
2019-04-22T13:07:34.096Z,27.61
2019-04-22T13:12:55.125Z,22.79
2019-04-22T13:18:26.169Z,28.03
2019-04-22T13:23:34.121Z,28.47
2019-04-22T13:28:52.596Z,27.90
2019-04-22T13:34:24.004Z,29.32
2019-04-22T13:39:34.900Z,28.68
2019-04-22T13:44:53.615Z,29.26
2019-04-22T13:50:49.902Z,26.68
2019-04-22T13:55:56.617Z,26.94
2019-04-22T14:00:56.621Z,26.34
2019-04-22T14:06:16.443Z,25.58
2019-04-22T14:11:43.906Z,26.17
2019-04-22T14:16:55.533Z,23.78
2019-04-22T14:22:14.078Z,24.00
2019-04-22T14:27:46.179Z,24.31
2019-04-22T14:32:54.105Z,24.71
2019-04-22T14:38:14.098Z,24.59
2019-04-22T14:44:02.343Z,25.39
2019-04-22T14:49:19.491Z,24.65
2019-04-22T14:54:26.816Z,23.71
2019-04-22T14:59:33.565Z,23.63
2019-04-22T15:04:52.281Z,25.10
2019-04-22T15:10:11.407Z,25.74
2019-04-22T15:15:51.111Z,26.57
2019-04-22T15:21:11.015Z,27.23
2019-04-22T15:26:30.663Z,26.69
2019-04-22T15:31:49.493Z,26.69
2019-04-22T15:37:08.420Z,27.02
2019-04-22T15:42:30.725Z,26.69
2019-04-22T15:47:48.229Z,27.02
2019-04-22T15:53:07.712Z,27.88
2019-04-22T15:58:28.038Z,25.54
2019-04-22T16:03:47.108Z,24.50
2019-04-22T16:09:11.056Z,24.14
2019-04-22T16:14:38.896Z,23.26
2019-04-22T16:19:50.927Z,23.46
2019-04-22T16:25:20.006Z,23.34
2019-04-22T16:30:39.484Z,23.40
2019-04-22T16:35:58.753Z,24.52
2019-04-22T16:41:18.825Z,25.44
2019-04-22T16:46:37.739Z,26.91
2019-04-22T16:51:56.354Z,26.38
2019-04-22T16:57:15.804Z,27.19
2019-04-22T17:02:46.505Z,26.60
2019-04-22T17:08:04.146Z,27.47
2019-04-22T17:13:26.861Z,28.86
2019-04-22T17:18:43.565Z,29.28
2019-04-22T17:24:03.565Z,31.22
2019-04-22T17:29:22.795Z,29.12
2019-04-22T17:34:41.481Z,27.51
2019-04-22T17:40:14.695Z,29.12
2019-04-22T17:45:47.703Z,26.20
2019-04-22T17:51:16.593Z,25.21
2019-04-22T17:56:27.930Z,24.89
2019-04-22T18:01:43.936Z,24.38
2019-04-22T18:07:13.364Z,24.84
2019-04-22T18:12:35.460Z,25.16
2019-04-22T18:17:55.557Z,25.98
2019-04-22T18:22:59.608Z,26.02
2019-04-22T18:28:30.316Z,25.92
2019-04-22T18:33:46.484Z,27.93
2019-04-22T18:39:16.284Z,27.71
2019-04-22T18:44:27.227Z,28.92
2019-04-22T18:49:47.605Z,28.94
2019-04-22T18:55:28.087Z,29.38
2019-04-22T19:00:41.849Z,30.23
2019-04-22T19:06:31.932Z,32.78
2019-04-22T19:11:51.719Z,35.09
2019-04-22T19:17:12.170Z,35.09
2019-04-22T19:22:25.113Z,37.46
2019-04-22T19:27:40.495Z,36.65
2019-04-22T19:33:06.194Z,36.79
2019-04-22T19:38:15.515Z,37.64
2019-04-22T19:43:46.518Z,38.02
2019-04-22T19:49:13.620Z,35.92
2019-04-22T19:54:23.278Z,35.56
2019-04-22T19:59:45.417Z,35.23
2019-04-22T20:05:23.164Z,34.97
2019-04-22T20:10:30.022Z,33.98
2019-04-22T20:15:43.327Z,33.17
2019-04-22T20:21:19.397Z,32.63
2019-04-22T20:26:40.701Z,32.41
2019-04-22T20:31:59.178Z,32.62
2019-04-22T20:37:22.279Z,33.33
2019-04-22T20:42:45.173Z,32.92
2019-04-22T20:47:52.503Z,33.89
2019-04-22T20:53:25.472Z,33.59
2019-04-22T20:58:43.185Z,34.24
2019-04-22T21:03:47.048Z,35.06
2019-04-22T21:09:18.012Z,35.31
2019-04-22T21:14:32.438Z,36.67
2019-04-22T21:20:06.901Z,36.25
2019-04-22T21:25:14.085Z,37.07
2019-04-22T21:30:41.413Z,38.31
2019-04-22T21:36:10.241Z,37.85
2019-04-22T21:41:20.440Z,38.84
2019-04-22T21:46:42.298Z,40.19
2019-04-22T21:52:00.196Z,41.61
2019-04-22T21:57:48.900Z,41.34
2019-04-22T22:03:05.665Z,40.10
2019-04-22T22:08:27.329Z,43.03
2019-04-22T22:13:38.707Z,42.95
2019-04-22T22:19:04.009Z,44.19
2019-04-22T22:24:27.237Z,42.59
2019-04-22T22:29:57.129Z,42.71
2019-04-22T22:35:03.482Z,43.00
2019-04-22T22:40:09.265Z,44.05
2019-04-22T22:45:33.874Z,45.83
2019-04-22T22:51:06.608Z,45.08
2019-04-22T22:56:25.402Z,45.04
2019-04-22T23:01:45.440Z,46.52
2019-04-22T23:07:11.419Z,47.41
2019-04-22T23:17:29.420Z,50.99
2019-04-22T23:23:09.383Z,49.96
2019-04-22T23:28:22.705Z,50.32
2019-04-22T23:33:42.402Z,51.77
2019-04-22T23:39:10.840Z,53.38
2019-04-22T23:44:24.981Z,53.21
2019-04-22T23:49:42.630Z,55.24
2019-04-22T23:55:11.506Z,55.94
